createdAt,value
2018-09-14T06:23:53.665Z,29.13
2018-09-14T06:26:22.097Z,29.87
2018-09-14T06:28:50.585Z,28.97
2018-09-14T06:31:19.059Z,32.20
2018-09-14T06:33:51.453Z,31.70
2018-09-14T06:36:21.686Z,25.93
2018-09-14T06:39:12.735Z,28.37
2018-09-14T06:41:41.297Z,29.60
2018-09-14T06:44:10.919Z,31.70
2018-09-14T06:46:39.369Z,30.77
2018-09-14T06:49:07.880Z,33.90
2018-09-14T06:51:37.935Z,31.20
2018-09-14T06:54:06.632Z,32.87
2018-09-14T06:56:35.099Z,32.57
2018-09-14T06:59:03.682Z,32.60
2018-09-14T07:01:32.178Z,33.90
2018-09-14T07:04:01.013Z,32.93
2018-09-14T07:06:29.670Z,35.60
2018-09-14T07:08:58.145Z,36.80
2018-09-14T07:11:26.689Z,30.80
2018-09-14T07:13:55.189Z,33.87
2018-09-14T07:16:23.693Z,33.53
2018-09-14T07:18:52.213Z,31.90
2018-09-14T07:21:20.729Z,32.17
2018-09-14T07:23:49.232Z,34.60
2018-09-14T07:26:21.012Z,31.67
2018-09-14T07:28:50.101Z,28.93
2018-09-14T07:31:18.713Z,30.83
2018-09-14T07:33:47.329Z,31.50
2018-09-14T07:36:15.812Z,35.33
2018-09-14T07:38:44.326Z,34.80
2018-09-14T07:41:12.808Z,28.90
2018-09-14T07:43:41.368Z,33.37
2018-09-14T07:46:09.846Z,35.43
2018-09-14T07:48:38.354Z,31.33
2018-09-14T07:51:07.193Z,34.70
2018-09-14T07:53:35.700Z,40.93
2018-09-14T07:56:04.179Z,34.63
2018-09-14T07:58:32.650Z,35.00
2018-09-14T08:01:01.330Z,32.30
2018-09-14T08:03:29.833Z,30.13
2018-09-14T08:05:58.364Z,30.87
2018-09-14T08:08:26.838Z,29.80
2018-09-14T08:10:55.345Z,33.17
2018-09-14T08:13:23.903Z,30.50
2018-09-14T08:15:52.397Z,29.47
2018-09-14T08:18:20.879Z,32.70
2018-09-14T08:20:49.394Z,26.97
2018-09-14T08:23:17.911Z,27.30
2018-09-14T08:25:46.429Z,27.47
2018-09-14T08:28:14.909Z,28.13
2018-09-14T08:30:43.426Z,28.63
2018-09-14T08:33:11.918Z,29.30
2018-09-14T08:35:40.458Z,25.40
2018-09-14T08:38:08.939Z,26.83
2018-09-14T08:40:37.434Z,24.83
2018-09-14T08:43:05.958Z,26.93
2018-09-14T08:45:34.461Z,24.67
2018-09-14T08:48:03.050Z,25.20
2018-09-14T08:50:31.514Z,24.33
2018-09-14T08:53:00.025Z,25.73
2018-09-14T08:55:28.558Z,25.53
2018-09-14T08:57:57.105Z,26.43
2018-09-14T09:00:25.725Z,25.47
2018-09-14T09:02:55.196Z,22.37
2018-09-14T09:05:24.702Z,23.63
2018-09-14T09:07:53.225Z,19.67
2018-09-14T09:10:21.773Z,19.63
2018-09-14T09:12:50.250Z,21.57
2018-09-14T09:15:18.866Z,20.30
2018-09-14T09:17:47.415Z,20.43
2018-09-14T09:20:16.304Z,19.07
2018-09-14T09:22:45.289Z,19.60
2018-09-14T09:25:13.838Z,23.77
2018-09-14T09:27:42.363Z,24.37
2018-09-14T09:30:10.896Z,22.53
2018-09-14T09:32:39.452Z,22.93
2018-09-14T09:35:08.006Z,21.73
2018-09-14T09:37:36.673Z,24.70
2018-09-14T09:40:05.275Z,25.33
2018-09-14T09:42:34.234Z,24.60
2018-09-14T09:45:02.754Z,24.07
2018-09-14T09:47:31.312Z,24.77
2018-09-14T09:49:59.887Z,23.57
2018-09-14T09:52:29.141Z,24.13
2018-09-14T09:54:57.677Z,24.83
2018-09-14T09:57:27.330Z,24.83
2018-09-14T09:59:57.605Z,21.77
2018-09-14T10:02:29.118Z,21.23
2018-09-14T10:05:09.974Z,21.53
2018-09-14T10:07:38.779Z,20.37
2018-09-14T10:10:10.750Z,19.80
2018-09-14T10:12:39.327Z,18.33
2018-09-14T10:15:18.554Z,18.63
2018-09-14T10:17:47.898Z,17.87
2018-09-14T10:20:19.571Z,19.20
2018-09-14T10:22:48.128Z,18.43
2018-09-14T10:25:16.617Z,19.90
2018-09-14T10:27:45.148Z,19.00
2018-09-14T10:30:18.840Z,18.07
2018-09-14T10:32:47.437Z,17.60
2018-09-14T10:35:15.966Z,17.80
2018-09-14T10:37:44.535Z,17.37
2018-09-14T10:40:13.107Z,17.23
2018-09-14T10:42:41.642Z,16.80
2018-09-14T10:45:10.196Z,15.03
2018-09-14T10:47:38.714Z,15.87
2018-09-14T10:50:07.309Z,15.37
2018-09-14T10:52:35.840Z,15.20
2018-09-14T10:55:04.374Z,14.93
2018-09-14T10:57:32.953Z,14.75
2018-09-14T11:00:01.460Z,15.03
2018-09-14T11:02:29.995Z,14.07
2018-09-14T11:04:58.473Z,14.60
2018-09-14T11:07:27.053Z,12.78
2018-09-14T11:09:55.603Z,11.73
2018-09-14T11:12:25.065Z,12.58
2018-09-14T11:14:54.643Z,12.88
2018-09-14T11:17:23.284Z,12.58
2018-09-14T11:19:57.414Z,11.30
2018-09-14T11:22:26.834Z,11.05
2018-09-14T11:24:58.790Z,10.95
2018-09-14T11:27:28.857Z,11.95
2018-09-14T11:29:57.438Z,13.62
2018-09-14T11:32:26.304Z,13.48
2018-09-14T11:34:56.728Z,15.90
2018-09-14T11:37:26.483Z,15.80
2018-09-14T11:39:57.216Z,17.37
2018-09-14T11:42:28.304Z,17.82
2018-09-14T11:45:01.635Z,15.93
2018-09-14T11:47:35.497Z,16.65
2018-09-14T11:50:04.191Z,15.45
2018-09-14T11:52:34.089Z,16.85
2018-09-14T11:55:06.824Z,15.60
2018-09-14T11:57:35.452Z,16.75
2018-09-14T12:00:04.091Z,15.53
2018-09-14T12:02:32.629Z,15.72
2018-09-14T12:05:01.199Z,16.20
2018-09-14T12:07:33.892Z,16.82
2018-09-14T12:10:02.424Z,15.03
2018-09-14T12:19:31.671Z,15.85
2018-09-14T12:22:00.242Z,15.70
2018-09-14T12:24:29.496Z,14.93
2018-09-14T12:26:58.222Z,14.25
2018-09-14T12:29:34.271Z,14.40
2018-09-14T12:32:02.841Z,14.43
2018-09-14T12:34:32.144Z,13.70
2018-09-14T12:37:10.217Z,14.20
2018-09-14T12:39:38.692Z,14.78
2018-09-14T12:42:07.206Z,14.15
2018-09-14T12:44:35.705Z,13.62
2018-09-14T12:47:04.339Z,13.90
2018-09-14T12:49:33.861Z,13.03
2018-09-14T12:52:03.148Z,13.03
2018-09-14T12:54:31.694Z,11.03
2018-09-14T12:57:00.249Z,12.45
2018-09-14T12:59:28.815Z,12.50
2018-09-14T13:01:57.322Z,12.53
2018-09-14T13:04:25.978Z,12.70
2018-09-14T13:06:54.503Z,12.68
2018-09-14T13:09:23.111Z,13.03
2018-09-14T13:11:51.614Z,14.03
2018-09-14T13:14:21.085Z,11.12
2018-09-14T13:16:50.152Z,11.30
2018-09-14T13:19:18.688Z,11.18
2018-09-14T13:21:47.208Z,10.32
2018-09-14T13:24:16.114Z,11.90
2018-09-14T13:26:44.648Z,10.98
2018-09-14T13:29:13.187Z,11.40
2018-09-14T13:31:41.683Z,12.35
2018-09-14T13:34:10.189Z,11.53
2018-09-14T13:36:38.686Z,12.43
2018-09-14T13:39:08.674Z,11.15
2018-09-14T13:41:37.182Z,11.90
2018-09-14T13:44:05.722Z,11.18
2018-09-14T13:46:34.188Z,10.35
2018-09-14T13:49:02.752Z,10.80
2018-09-14T13:51:31.244Z,11.75
2018-09-14T13:53:59.772Z,14.35
2018-09-14T13:56:28.293Z,14.20
2018-09-14T13:58:56.874Z,13.75
2018-09-14T14:01:25.450Z,14.45
2018-09-14T14:03:54.098Z,13.85
2018-09-14T14:06:22.589Z,13.13
2018-09-14T14:08:51.110Z,12.47
2018-09-14T14:11:19.651Z,12.20
2018-09-14T14:13:48.264Z,11.90
2018-09-14T14:16:18.126Z,13.08
2018-09-14T14:18:46.722Z,13.30
2018-09-14T14:21:18.806Z,10.88
2018-09-14T14:23:47.343Z,10.50
2018-09-14T14:26:15.850Z,13.95
2018-09-14T14:28:48.371Z,13.20
2018-09-14T14:31:16.862Z,11.78
2018-09-14T14:33:45.400Z,11.45
2018-09-14T14:36:14.679Z,9.60
2018-09-14T14:38:43.308Z,9.98
2018-09-14T14:41:11.832Z,10.68
2018-09-14T14:43:40.398Z,12.75
2018-09-14T14:46:09.007Z,12.18
2018-09-14T14:48:37.562Z,12.20
2018-09-14T14:51:06.101Z,12.53
2018-09-14T14:53:34.617Z,13.70
2018-09-14T14:56:03.184Z,12.37
2018-09-14T14:58:31.688Z,13.80
2018-09-14T15:01:00.204Z,12.93
2018-09-14T15:03:28.769Z,12.07
2018-09-14T15:05:57.456Z,11.78
2018-09-14T15:08:26.034Z,12.07
2018-09-14T15:10:54.535Z,9.93
2018-09-14T15:13:23.084Z,11.78
2018-09-14T15:15:51.822Z,10.20
2018-09-14T15:18:20.311Z,10.15
2018-09-14T15:20:48.849Z,10.10
2018-09-14T15:23:17.330Z,9.85
2018-09-14T15:25:45.904Z,10.70
2018-09-14T15:28:14.385Z,9.80
2018-09-14T15:30:42.885Z,8.80
2018-09-14T15:33:11.375Z,8.55
2018-09-14T15:35:39.902Z,7.60
2018-09-14T15:38:08.437Z,7.60
2018-09-14T15:40:36.995Z,7.90
2018-09-14T15:43:05.490Z,7.83
2018-09-14T15:45:34.019Z,7.47
2018-09-14T15:48:02.484Z,7.30
2018-09-14T15:50:31.053Z,7.00
2018-09-14T15:52:59.537Z,7.60
2018-09-14T15:55:28.099Z,6.90
2018-09-14T15:57:56.601Z,6.58
2018-09-14T16:00:25.107Z,6.50
2018-09-14T16:02:54.357Z,6.35
2018-09-14T16:05:22.861Z,6.15
2018-09-14T16:07:51.357Z,6.42
2018-09-14T16:10:19.865Z,6.08
2018-09-14T16:12:48.336Z,6.03
2018-09-14T16:15:16.841Z,6.05
2018-09-14T16:17:45.343Z,5.92
2018-09-14T16:20:13.841Z,6.03
2018-09-14T16:22:42.317Z,5.70
2018-09-14T16:25:23.069Z,6.35
2018-09-14T16:27:52.292Z,5.75
2018-09-14T16:30:20.785Z,6.00
2018-09-14T16:32:49.406Z,5.90
2018-09-14T16:35:17.943Z,6.30
2018-09-14T16:37:46.437Z,5.72
2018-09-14T16:40:14.973Z,6.50
2018-09-14T16:42:43.455Z,6.28
2018-09-14T16:45:12.030Z,5.72
2018-09-14T16:47:40.646Z,5.97
2018-09-14T16:50:18.746Z,6.37
2018-09-14T16:52:48.362Z,6.37
2018-09-14T16:55:16.889Z,6.22
2018-09-14T16:57:45.398Z,6.10
2018-09-14T17:00:13.906Z,5.90
2018-09-14T17:02:42.488Z,6.17
2018-09-14T17:05:10.962Z,5.87
2018-09-14T17:07:40.328Z,7.00
2018-09-14T17:10:09.913Z,7.00
2018-09-14T17:12:38.410Z,6.53
2018-09-14T17:15:07.727Z,6.63
2018-09-14T17:17:36.321Z,6.53
2018-09-14T17:20:05.062Z,6.23
2018-09-14T17:22:33.583Z,6.30
2018-09-14T17:25:02.210Z,6.10
2018-09-14T17:27:30.767Z,8.30
2018-09-14T17:29:59.277Z,7.07
2018-09-14T17:32:27.799Z,6.93
2018-09-14T17:34:56.269Z,7.13
2018-09-14T17:37:24.778Z,6.73
2018-09-14T17:39:53.261Z,7.00
2018-09-14T17:42:21.813Z,6.67
2018-09-14T17:44:50.313Z,7.07
2018-09-14T17:47:18.887Z,7.40
2018-09-14T17:49:47.370Z,7.90
2018-09-14T17:52:15.869Z,8.07
2018-09-14T17:54:44.417Z,9.83
2018-09-14T17:57:12.947Z,8.73
2018-09-14T17:59:41.454Z,7.33
2018-09-14T18:02:09.949Z,7.40
2018-09-14T18:04:38.433Z,8.07
2018-09-14T18:07:06.978Z,8.30
2018-09-14T18:09:35.478Z,7.77
2018-09-14T18:12:04.027Z,8.23
2018-09-14T18:14:32.486Z,8.67
2018-09-14T18:17:00.981Z,8.30
2018-09-14T18:19:29.468Z,10.03
2018-09-14T18:21:58.001Z,9.87
2018-09-14T18:24:26.449Z,9.87
2018-09-14T18:26:54.992Z,9.43
2018-09-14T18:29:23.457Z,9.73
2018-09-14T18:31:51.971Z,10.30
2018-09-14T18:34:20.458Z,10.13
2018-09-14T18:36:48.995Z,10.10
2018-09-14T18:39:17.469Z,10.07
2018-09-14T18:41:45.991Z,10.30
2018-09-14T18:44:14.506Z,10.13
2018-09-14T18:46:43.108Z,10.83
2018-09-14T18:49:11.610Z,10.80
2018-09-14T18:51:40.147Z,12.77
2018-09-14T18:54:08.807Z,12.40
2018-09-14T18:56:37.306Z,12.77
2018-09-14T18:59:06.021Z,10.87
2018-09-14T19:01:34.530Z,9.97
2018-09-14T19:04:03.028Z,10.40
2018-09-14T19:06:31.555Z,12.00
2018-09-14T19:09:00.039Z,11.53
2018-09-14T19:11:28.550Z,12.50
2018-09-14T19:13:57.037Z,11.73
2018-09-14T19:16:25.566Z,12.47
2018-09-14T19:18:54.065Z,12.30
2018-09-14T19:21:22.593Z,12.00
2018-09-14T19:23:51.098Z,13.43
2018-09-14T19:26:19.575Z,13.77
2018-09-14T19:28:48.074Z,13.03
2018-09-14T19:31:16.594Z,12.90
2018-09-14T19:33:45.160Z,12.40
2018-09-14T19:36:13.710Z,12.47
2018-09-14T19:38:42.278Z,13.63
2018-09-14T19:41:10.774Z,13.03
2018-09-14T19:43:39.302Z,13.77
2018-09-14T19:46:07.836Z,13.47
2018-09-14T19:48:36.361Z,13.30
2018-09-14T19:51:04.874Z,13.53
2018-09-14T19:53:38.401Z,13.33
2018-09-14T19:56:06.899Z,14.03
2018-09-14T19:58:35.403Z,14.77
2018-09-14T20:01:03.895Z,14.47
2018-09-14T20:03:32.428Z,15.10
2018-09-14T20:06:00.968Z,14.73
2018-09-14T20:08:29.461Z,16.80
2018-09-14T20:10:57.965Z,15.80
2018-09-14T20:13:26.482Z,14.87
2018-09-14T20:15:54.982Z,15.53
2018-09-14T20:18:23.603Z,16.43
2018-09-14T20:20:52.062Z,15.63
2018-09-14T20:23:20.654Z,16.00
2018-09-14T20:25:49.205Z,15.97
2018-09-14T20:28:17.701Z,14.90
2018-09-14T20:30:46.181Z,16.57
2018-09-14T20:33:14.725Z,16.33
2018-09-14T20:35:43.194Z,15.43
2018-09-14T20:38:11.730Z,15.40
2018-09-14T20:40:40.237Z,15.13
2018-09-14T20:43:08.802Z,15.87
2018-09-14T20:45:37.342Z,14.93
2018-09-14T20:48:05.989Z,16.47
2018-09-14T20:50:34.498Z,15.27
2018-09-14T20:53:03.030Z,16.30
2018-09-14T20:55:32.153Z,15.23
2018-09-14T20:58:00.707Z,15.77
2018-09-14T21:00:30.958Z,16.43
2018-09-14T21:02:59.524Z,16.87
2018-09-14T21:05:29.751Z,16.10
2018-09-14T21:07:58.434Z,16.07
2018-09-14T21:10:28.719Z,15.93
2018-09-14T21:12:57.225Z,15.30
2018-09-14T21:15:25.777Z,15.50
2018-09-14T21:17:54.302Z,15.13
2018-09-14T21:20:22.828Z,15.53
2018-09-14T21:22:51.415Z,14.87
2018-09-14T21:25:19.959Z,15.97
2018-09-14T21:27:48.562Z,15.73
2018-09-14T21:30:17.226Z,15.60
2018-09-14T21:32:45.756Z,15.70
2018-09-14T21:35:14.273Z,15.67
2018-09-14T21:37:42.787Z,16.27
2018-09-14T21:40:13.923Z,14.93
2018-09-14T21:42:42.448Z,15.57
2018-09-14T21:45:11.289Z,15.70
2018-09-14T21:47:39.836Z,16.57
2018-09-14T21:50:08.383Z,16.03
2018-09-14T21:52:36.883Z,16.17
2018-09-14T21:55:05.526Z,15.10
2018-09-14T21:57:34.038Z,17.20
2018-09-14T22:00:09.315Z,16.50
2018-09-14T22:02:37.799Z,16.37
2018-09-14T22:05:06.546Z,16.10
2018-09-14T22:07:35.058Z,15.40
2018-09-14T22:10:03.623Z,15.73
2018-09-14T22:12:32.125Z,15.77
2018-09-14T22:15:00.634Z,15.57
2018-09-14T22:17:29.145Z,16.07
2018-09-14T22:19:57.698Z,16.63
2018-09-14T22:22:26.170Z,15.87
2018-09-14T22:24:55.006Z,15.77
2018-09-14T22:27:23.500Z,16.00
2018-09-14T22:29:52.004Z,16.37
2018-09-14T22:32:20.488Z,14.67
2018-09-14T22:34:49.143Z,16.07
2018-09-14T22:37:17.644Z,15.00
2018-09-14T22:39:46.169Z,15.10
2018-09-14T22:42:14.659Z,15.20
2018-09-14T22:44:43.172Z,14.83
2018-09-14T22:47:11.673Z,14.47
2018-09-14T22:49:40.200Z,15.03
2018-09-14T22:52:08.868Z,14.73
2018-09-14T22:54:37.394Z,15.93
2018-09-14T22:57:05.880Z,14.87
2018-09-14T22:59:34.410Z,14.97
2018-09-14T23:02:02.909Z,14.87
2018-09-14T23:04:31.424Z,14.70
2018-09-14T23:06:59.952Z,15.17
2018-09-14T23:09:28.463Z,14.80
2018-09-14T23:11:56.944Z,14.93
2018-09-14T23:14:25.449Z,15.03
2018-09-14T23:16:53.938Z,14.87
2018-09-14T23:19:22.449Z,15.37
2018-09-14T23:21:50.935Z,15.40
2018-09-14T23:24:19.454Z,15.93
2018-09-14T23:26:47.980Z,15.93
2018-09-14T23:29:16.486Z,17.30
2018-09-14T23:31:44.989Z,14.80
2018-09-14T23:39:58.597Z,16.10
2018-09-14T23:45:19.810Z,15.00
2018-09-14T23:47:48.283Z,15.50
2018-09-14T23:50:16.808Z,15.43
2018-09-14T23:52:45.305Z,16.17
